Mahtowa, Minnesota
Current Conditions -  °F | °C
As of 5:33 PM on Monday 20 Oct 2014 (Local Time) from KMZH Reporting Station
Overcast Overcast  
Wind Chill: 50°   Ceiling: 3000
Heat Index: 50°   Visibility: 10mi
Dew Point: 37°   Wind: 6mph
Humidity: 62%   Direction: 320°NW
Pressure: 30.03"   Gusts: NA
Location:  46.5379°N, 92.621°W
Report Text: KMZH 202233Z AUTO 32005KT 10SM OVC030 10/03 A3003 RMK AO2
Loading
Personal Weather Stations






























Interactive Weather Map
Tropical Storm Tracking
New forecast layout! Learn more

10-Day Weather Forecast

Advertisements
Track Severe Weather on mobile